Time;durP1;ratioP1;P1;durP2;ratioP2;P2;SDS_P1;SDS_P2;PMS_P1;PMS_P2;Temp;Humidity;BMP_temperature;BMP_pressure;BME280_temperature;BME280_humidity;BME280_pressure;Samples;Min_cycle;Max_cycle;Signal;HPM_P1;HPM_P2
2024/01/18 00:01:51;;;;;;;8.45;5.32;;;;;;;7.64;60.50;98700.41;4943399;28;20481;-95
2024/01/18 00:04:17;;;;;;;10.30;6.40;;;;;;;7.55;60.46;98681.38;4960462;28;20022;-95
2024/01/18 00:06:42;;;;;;;9.45;6.00;;;;;;;7.54;60.42;98687.81;4971219;28;20031;-94
2024/01/18 00:09:08;;;;;;;13.13;8.05;;;;;;;7.54;60.55;98678.97;4943930;28;20034;-94
2024/01/18 00:11:33;;;;;;;11.80;8.15;;;;;;;7.52;60.86;98675.75;4945453;28;20027;-94
2024/01/18 00:14:00;;;;;;;10.45;7.25;;;;;;;7.57;60.85;98681.09;4943357;28;20090;-93
2024/01/18 00:16:25;;;;;;;10.60;6.93;;;;;;;7.48;60.71;98664.75;4959315;28;20030;-94
2024/01/18 00:18:51;;;;;;;9.55;5.88;;;;;;;7.44;61.02;98663.69;4944659;28;20035;-94
2024/01/18 00:21:17;;;;;;;11.27;5.45;;;;;;;7.42;60.78;98669.28;4943716;28;20027;-94
2024/01/18 00:23:43;;;;;;;9.75;5.72;;;;;;;7.44;61.01;98664.47;4928230;28;20390;-94
2024/01/18 00:26:09;;;;;;;12.70;5.72;;;;;;;7.40;61.25;98663.41;4943639;28;20039;-94
2024/01/18 00:28:35;;;;;;;9.73;5.05;;;;;;;7.43;60.82;98662.88;4944617;28;20030;-93
2024/01/18 00:31:01;;;;;;;11.15;6.18;;;;;;;7.45;60.97;98665.28;4930030;28;20026;-94
2024/01/18 00:33:26;;;;;;;7.13;4.80;;;;;;;7.45;61.24;98666.09;4960589;28;20030;-93
2024/01/18 00:35:52;;;;;;;9.60;5.60;;;;;;;7.41;61.49;98661.53;4960748;28;20030;-94
2024/01/18 00:38:17;;;;;;;8.10;5.13;;;;;;;7.48;61.19;98665.56;4945388;28;20109;-94
2024/01/18 00:40:43;;;;;;;10.48;5.53;;;;;;;7.46;61.12;98667.69;4944901;28;20433;-93
2024/01/18 00:43:10;;;;;;;7.65;4.97;;;;;;;7.39;61.11;98650.28;4929203;28;20054;-92
2024/01/18 00:45:35;;;;;;;6.43;4.68;;;;;;;7.42;61.15;98652.44;4928772;28;20412;-93
2024/01/18 00:48:01;;;;;;;7.75;4.50;;;;;;;7.55;60.86;98651.91;4928847;28;20022;-94
2024/01/18 00:50:26;;;;;;;9.63;4.30;;;;;;;7.55;60.66;98635.03;4944214;28;20023;-94
2024/01/18 00:52:52;;;;;;;8.23;4.57;;;;;;;7.67;60.54;98655.13;4944240;28;20042;-93
2024/01/18 00:55:19;;;;;;;9.23;4.45;;;;;;;7.74;60.50;98637.97;4928352;28;20026;-94
2024/01/18 00:57:44;;;;;;;8.60;5.10;;;;;;;7.82;60.31;98642.81;4928579;28;20030;-94
2024/01/18 01:00:11;;;;;;;9.60;4.78;;;;;;;7.81;60.48;98644.69;4928657;28;20034;-93
2024/01/18 01:02:37;;;;;;;8.63;4.70;;;;;;;7.71;60.22;98638.53;4944830;28;20090;-94
2024/01/18 01:05:03;;;;;;;11.23;6.10;;;;;;;7.74;60.51;98643.34;4943914;28;20030;-93
2024/01/18 01:07:28;;;;;;;9.77;5.75;;;;;;;7.72;60.47;98646.31;4945438;28;20493;-93
2024/01/18 01:09:54;;;;;;;9.82;5.35;;;;;;;7.62;60.19;98633.69;4945360;28;20122;-94
2024/01/18 01:12:19;;;;;;;12.68;6.13;;;;;;;7.75;60.84;98659.16;4929004;28;20030;-93
2024/01/18 01:14:45;;;;;;;9.52;5.82;;;;;;;7.71;60.64;98650.03;4931133;28;20532;-95
2024/01/18 01:17:10;;;;;;;12.57;6.70;;;;;;;7.75;61.07;98640.41;4934430;28;20034;-94
2024/01/18 01:19:36;;;;;;;14.00;7.13;;;;;;;7.73;60.60;98628.34;4932578;28;20026;-95
2024/01/18 01:22:02;;;;;;;11.80;6.28;;;;;;;7.80;60.73;98632.38;4932215;28;20023;-94
2024/01/18 01:24:28;;;;;;;10.15;5.20;;;;;;;7.87;60.79;98630.22;4931342;28;20027;-94
2024/01/18 01:26:53;;;;;;;11.77;5.72;;;;;;;7.83;60.63;98623.00;4948209;28;20030;-93
2024/01/18 01:29:19;;;;;;;11.88;5.65;;;;;;;7.73;61.05;98613.06;4942667;28;20046;-95
2024/01/18 01:31:45;;;;;;;12.50;6.43;;;;;;;7.68;60.83;98602.38;4936423;28;20031;-94
2024/01/18 01:34:10;;;;;;;12.43;5.72;;;;;;;7.75;61.28;98631.56;4939329;28;20023;-94
2024/01/18 01:36:38;;;;;;;11.88;5.45;;;;;;;7.58;61.57;98605.03;4947796;28;20121;-92
2024/01/18 01:39:04;;;;;;;11.43;5.43;;;;;;;7.69;61.51;98620.81;4946710;28;20057;-94
2024/01/18 01:41:30;;;;;;;12.63;5.78;;;;;;;7.71;61.27;98628.59;4946275;28;20039;-94
2024/01/18 01:44:02;;;;;;;11.10;5.50;;;;;;;7.52;61.72;98603.44;4946497;28;20026;-95
2024/01/18 01:46:27;;;;;;;;;;;;;;;7.64;61.57;98625.41;4947103;28;20031;-93
2024/01/18 01:48:57;;;;;;;10.02;5.57;;;;;;;7.47;62.13;98607.72;4962354;28;20355;-94
2024/01/18 01:51:22;;;;;;;10.10;5.70;;;;;;;7.61;61.99;98615.22;4939597;29;20023;-93
2024/01/18 01:53:48;;;;;;;12.00;7.00;;;;;;;7.55;62.04;98601.00;4927495;29;20023;-93
2024/01/18 01:56:13;;;;;;;13.10;6.78;;;;;;;7.54;61.99;98598.59;4930646;28;20034;-94
2024/01/18 01:58:39;;;;;;;12.02;7.20;;;;;;;7.59;61.54;98596.72;4945842;28;20023;-94
2024/01/18 02:01:04;;;;;;;10.88;7.15;;;;;;;7.55;61.57;98587.59;4930477;28;20026;-94
2024/01/18 02:03:30;;;;;;;14.60;8.80;;;;;;;7.59;61.81;98590.56;4929175;28;20058;-93
2024/01/18 02:05:55;;;;;;;18.60;9.20;;;;;;;7.45;62.07;98572.34;4929922;28;20125;-94
2024/01/18 02:08:22;;;;;;;15.07;9.13;;;;;;;7.54;61.72;98583.34;4946399;28;20451;-94
2024/01/18 02:10:48;;;;;;;16.05;9.27;;;;;;;7.56;62.27;98589.22;4930380;28;20444;-94
2024/01/18 02:13:13;;;;;;;19.10;9.13;;;;;;;7.52;62.29;98585.47;4930864;28;20055;-93
2024/01/18 02:15:39;;;;;;;18.20;8.35;;;;;;;7.63;61.69;98595.09;4929749;28;20045;-92
2024/01/18 02:18:04;;;;;;;12.68;8.23;;;;;;;7.46;62.20;98573.94;4934514;28;20035;-93
2024/01/18 02:20:30;;;;;;;16.90;8.65;;;;;;;7.45;62.31;98569.69;4940331;28;20064;-94
2024/01/18 02:22:55;;;;;;;13.90;8.10;;;;;;;7.44;62.39;98575.28;4960837;28;20412;-94
2024/01/18 02:25:22;;;;;;;14.43;8.10;;;;;;;7.46;62.29;98576.63;4927843;29;20080;-94
2024/01/18 02:27:48;;;;;;;14.88;8.38;;;;;;;7.44;62.06;98572.63;4945202;28;20223;-95
2024/01/18 02:30:13;;;;;;;14.90;8.32;;;;;;;7.40;61.91;98572.34;4929585;28;20027;-94
2024/01/18 02:32:39;;;;;;;16.23;8.68;;;;;;;7.40;62.11;98566.19;4946259;28;20025;-93
2024/01/18 02:35:05;;;;;;;13.05;8.38;;;;;;;7.40;61.96;98569.66;4929186;28;20065;-94
2024/01/18 02:37:30;;;;;;;12.35;8.10;;;;;;;7.29;62.28;98554.66;4930404;28;20039;-94
2024/01/18 02:39:56;;;;;;;17.40;8.98;;;;;;;7.35;62.20;98564.31;4930203;28;20054;-94
2024/01/18 02:42:21;;;;;;;21.25;12.10;;;;;;;7.08;62.37;98549.28;4929292;28;20031;-94
2024/01/18 02:44:47;;;;;;;26.95;14.95;;;;;;;7.06;61.78;98559.47;4929614;28;20023;-94
2024/01/18 02:47:13;;;;;;;24.08;15.35;;;;;;;6.78;60.95;98549.22;4945531;28;20054;-94
2024/01/18 02:49:39;;;;;;;27.40;15.05;;;;;;;6.81;60.92;98554.06;4930084;28;20413;-94
2024/01/18 02:52:05;;;;;;;27.17;15.70;;;;;;;6.60;61.60;98550.50;4929993;28;20026;-94
2024/01/18 02:54:31;;;;;;;27.42;16.85;;;;;;;6.56;61.43;98544.91;4944350;28;20019;-94
2024/01/18 02:56:56;;;;;;;27.75;16.52;;;;;;;6.46;61.40;98542.97;4929132;28;20027;-94
2024/01/18 02:59:22;;;;;;;25.02;16.38;;;;;;;6.26;61.80;98535.66;4944922;28;20023;-94
2024/01/18 03:01:47;;;;;;;23.02;15.85;;;;;;;6.25;61.59;98554.66;4944694;28;20030;-94
2024/01/18 03:04:13;;;;;;;27.27;15.07;;;;;;;6.10;62.07;98531.34;4929995;28;20378;-92
2024/01/18 03:06:38;;;;;;;22.13;14.45;;;;;;;6.20;61.66;98536.72;4930428;28;20030;-93
2024/01/18 03:09:04;;;;;;;25.00;15.32;;;;;;;6.25;62.72;98541.28;4931145;28;20038;-93
2024/01/18 03:11:30;;;;;;;21.77;13.82;;;;;;;6.17;62.14;98531.91;4948096;28;20035;-94
2024/01/18 03:13:55;;;;;;;24.38;15.02;;;;;;;6.21;62.23;98546.34;4932205;28;20023;-93
2024/01/18 03:16:21;;;;;;;24.98;14.10;;;;;;;6.01;62.57;98525.66;4930927;28;20043;-92
2024/01/18 03:18:47;;;;;;;21.50;13.85;;;;;;;5.94;62.54;98524.28;4930649;28;20022;-93
2024/01/18 03:21:13;;;;;;;24.33;13.98;;;;;;;5.96;62.23;98527.53;4946375;28;20080;-93
2024/01/18 03:23:39;;;;;;;21.08;13.85;;;;;;;5.97;62.40;98519.22;4946073;28;20054;-93
2024/01/18 03:26:04;;;;;;;22.48;14.00;;;;;;;6.03;62.31;98525.41;4944893;28;20034;-93
2024/01/18 03:28:30;;;;;;;22.30;13.80;;;;;;;5.98;62.17;98514.72;4946011;28;20022;-93
2024/01/18 03:30:55;;;;;;;21.05;12.98;;;;;;;6.03;63.20;98514.72;4963712;28;20528;-94
2024/01/18 03:33:21;;;;;;;20.17;13.68;;;;;;;6.07;63.27;98521.16;4945433;28;19999;-93
2024/01/18 03:35:46;;;;;;;21.80;13.10;;;;;;;6.05;62.84;98524.06;4946164;28;20504;-93
2024/01/18 03:38:12;;;;;;;20.02;13.23;;;;;;;5.97;63.48;98513.88;4928815;28;20034;-92
2024/01/18 03:40:37;;;;;;;17.30;11.90;;;;;;;6.06;63.60;98524.91;4929233;28;20058;-92
2024/01/18 03:43:03;;;;;;;21.83;13.55;;;;;;;6.10;63.21;98517.16;4945786;28;20031;-92
2024/01/18 03:45:28;;;;;;;19.40;12.30;;;;;;;6.12;63.44;98520.38;4929109;28;20026;-92
2024/01/18 03:47:54;;;;;;;18.13;12.57;;;;;;;6.16;63.41;98511.56;4929603;28;20142;-93
2024/01/18 03:50:20;;;;;;;22.27;12.63;;;;;;;6.25;63.41;98506.53;4944592;28;20093;-94
2024/01/18 03:52:45;;;;;;;18.83;12.48;;;;;;;6.22;63.35;98504.38;4944094;28;20046;-93
2024/01/18 03:55:11;;;;;;;21.08;13.55;;;;;;;6.28;63.74;98511.34;4943919;28;20098;-93
2024/01/18 03:57:37;;;;;;;18.67;12.40;;;;;;;6.27;63.87;98505.22;4943285;28;20109;-93
2024/01/18 04:00:04;;;;;;;20.90;12.68;;;;;;;6.36;64.59;98502.84;4943770;28;20031;-93
2024/01/18 04:02:30;;;;;;;19.35;12.60;;;;;;;6.40;64.84;98501.25;4960027;28;20027;-92
2024/01/18 04:04:55;;;;;;;17.00;11.07;;;;;;;6.51;64.99;98510.09;4924535;29;20038;-93
2024/01/18 04:07:22;;;;;;;21.05;11.88;;;;;;;6.64;64.67;98519.50;4930142;29;20034;-93
2024/01/18 04:09:47;;;;;;;17.63;11.75;;;;;;;6.64;65.05;98519.50;4940738;29;20481;-94
2024/01/18 04:12:14;;;;;;;18.85;11.13;;;;;;;6.73;65.67;98522.47;4942900;29;20031;-95
2024/01/18 04:14:43;;;;;;;14.10;9.52;;;;;;;6.64;66.69;98506.09;4941572;29;20387;-93
2024/01/18 04:17:14;;;;;;;12.52;8.07;;;;;;;6.79;67.09;98510.72;4941684;29;20035;-93
2024/01/18 04:19:39;;;;;;;14.90;8.88;;;;;;;6.84;66.76;98510.72;4965201;28;20114;-93
2024/01/18 04:22:08;;;;;;;15.68;9.93;;;;;;;6.83;66.99;98493.06;4933583;28;20068;-93
2024/01/18 04:24:37;;;;;;;14.82;8.77;;;;;;;6.95;67.06;98512.34;4945462;28;20086;-96
2024/01/18 04:27:07;;;;;;;15.73;8.77;;;;;;;6.97;67.36;98504.03;4967077;28;20030;-96
2024/01/18 04:29:32;;;;;;;15.02;10.43;;;;;;;6.96;67.28;98499.78;4950797;28;20025;-94
2024/01/18 04:31:58;;;;;;;20.60;11.20;;;;;;;7.14;66.69;98525.19;4946376;28;20060;-94
2024/01/18 04:34:23;;;;;;;10.50;6.53;;;;;;;7.09;67.80;98502.69;4927244;28;20484;-92
2024/01/18 04:36:51;;;;;;;11.55;5.80;;;;;;;7.25;67.64;98506.19;4924370;29;20046;-93
2024/01/18 04:39:17;;;;;;;6.13;4.20;;;;;;;7.49;67.79;98527.91;4927903;28;20051;-94
2024/01/18 04:41:43;;;;;;;11.90;4.53;;;;;;;7.59;67.09;98507.50;4940112;28;20512;-95
2024/01/18 04:44:09;;;;;;;7.53;4.60;;;;;;;7.70;66.86;98506.44;4933937;29;20031;-93
2024/01/18 04:46:34;;;;;;;8.65;5.07;;;;;;;7.92;66.99;98527.53;4947549;28;20130;-93
2024/01/18 04:49:02;;;;;;;8.07;4.50;;;;;;;7.93;67.03;98506.91;4945311;28;20035;-93
2024/01/18 04:51:28;;;;;;;6.18;4.10;;;;;;;8.15;66.35;98510.06;4929756;28;20042;-95
2024/01/18 04:53:53;;;;;;;9.52;6.45;;;;;;;8.26;66.83;98510.84;4929850;28;20151;-94
2024/01/18 04:56:19;;;;;;;6.60;4.57;;;;;;;8.41;66.22;98515.38;4945144;28;20038;-95
2024/01/18 04:58:45;;;;;;;6.47;4.78;;;;;;;8.44;66.62;98488.75;4961152;28;20105;-94
2024/01/18 05:01:13;;;;;;;8.38;5.53;;;;;;;8.63;65.95;98505.06;4928133;28;20027;-94
2024/01/18 05:03:39;;;;;;;5.88;4.63;;;;;;;8.66;66.31;98509.84;4961696;28;20082;-93
2024/01/18 05:06:05;;;;;;;6.45;4.20;;;;;;;8.78;66.64;98501.47;4961835;28;20039;-94
2024/01/18 05:08:33;;;;;;;6.00;3.58;;;;;;;8.85;66.79;98498.47;4929962;28;20101;-96
2024/01/18 05:10:59;;;;;;;6.40;3.83;;;;;;;8.97;66.87;98492.78;4931291;28;20038;-95
2024/01/18 05:13:26;;;;;;;4.75;3.55;;;;;;;9.09;66.71;98488.66;4929951;28;20031;-94
2024/01/18 05:15:51;;;;;;;7.15;3.85;;;;;;;9.21;66.65;98487.47;4943618;28;20042;-94
2024/01/18 05:18:17;;;;;;;6.90;3.97;;;;;;;9.27;66.09;98489.81;4945452;28;20022;-95
2024/01/18 05:24:15;;;;;;;6.00;3.70;;;;;;;9.51;66.23;98499.84;4907866;28;20059;-96
2024/01/18 05:26:40;;;;;;;6.82;5.75;;;;;;;9.57;65.70;98487.97;4949649;28;20042;-96
2024/01/18 05:29:21;;;;;;;9.05;5.03;;;;;;;9.62;65.69;98490.59;4932493;28;20097;-96
2024/01/18 05:32:23;;;;;;;;;;;;;;;9.83;65.44;98501.16;4950684;28;20043;-95
2024/01/18 05:35:06;;;;;;;8.35;4.60;;;;;;;9.75;65.44;98472.19;4973187;28;19910;-95
2024/01/18 05:37:33;;;;;;;;;;;;;;;9.90;65.42;98496.25;4934381;28;20129;-96
2024/01/18 05:40:21;;;;;;;9.32;5.32;;;;;;;9.92;65.93;98488.69;4947868;28;19925;-94
2024/01/18 05:42:46;;;;;;;16.05;11.38;;;;;;;9.89;65.85;98479.28;4934927;28;20050;-95
2024/01/18 05:45:18;;;;;;;20.15;11.07;;;;;;;9.79;66.16;98451.72;4949685;28;20046;-94
2024/01/18 05:47:51;;;;;;;12.95;8.18;;;;;;;9.87;66.51;98449.19;4948099;28;20035;-96
2024/01/18 05:50:23;;;;;;;11.88;8.00;;;;;;;9.91;66.48;98444.06;4935413;28;20035;-96
2024/01/18 05:52:48;;;;;;;;;;;;;;;10.09;66.53;98466.72;4951658;28;20026;-94
2024/01/18 05:55:38;;;;;;;;;;;;;;;;;;;;;
2024/01/18 05:58:24;;;;;;;11.48;6.45;;;;;;;10.00;66.13;98444.22;4957227;28;20122;-95
2024/01/18 06:00:50;;;;;;;9.20;4.60;;;;;;;10.10;65.41;98457.53;4963410;28;20332;-95
2024/01/18 06:03:18;;;;;;;7.07;4.68;;;;;;;10.15;65.58;98451.28;4935201;28;20038;-95
2024/01/18 06:05:47;;;;;;;7.30;4.70;;;;;;;10.22;65.60;98449.06;4933103;28;20066;-95
2024/01/18 06:08:54;;;;;;;6.68;4.57;;;;;;;10.26;65.68;98445.50;4935861;28;20030;-95
2024/01/18 06:11:22;;;;;;;10.45;5.80;;;;;;;10.31;66.00;98441.97;4966761;28;20026;-96
2024/01/18 06:14:12;;;;;;;7.47;4.18;;;;;;;10.30;65.47;98443.88;4955574;28;20034;-95
2024/01/18 06:16:44;;;;;;;9.40;6.30;;;;;;;10.32;65.72;98439.00;4956258;28;20126;-95
2024/01/18 06:19:11;;;;;;;7.57;5.10;;;;;;;10.48;65.51;98454.94;4934592;28;20026;-94
2024/01/18 06:29:26;;;;;;;14.98;8.07;;;;;;;10.62;64.71;98428.88;5187800;23;20513;-96
2024/01/18 06:31:53;;;;;;;10.57;6.18;;;;;;;10.81;64.56;98446.91;4916175;29;20043;-96
2024/01/18 06:34:33;;;;;;;16.80;11.35;;;;;;;10.89;64.19;98452.47;4937275;29;20015;-96
2024/01/18 06:37:12;;;;;;;20.10;12.30;;;;;;;10.92;64.06;98451.06;4976577;28;20028;-96
2024/01/18 06:39:37;;;;;;;51.45;28.83;;;;;;;10.81;63.89;98433.47;4919882;29;20050;-96
2024/01/18 06:42:09;;;;;;;152.27;79.07;;;;;;;10.95;63.81;98447.78;4933198;29;20055;-95
2024/01/18 06:44:35;;;;;;;34.20;19.42;;;;;;;10.92;63.68;98424.94;4918611;29;20409;-96
2024/01/18 06:47:00;;;;;;;25.77;14.00;;;;;;;10.98;63.38;98433.75;4916626;29;20043;-96
2024/01/18 06:49:26;;;;;;;17.08;11.02;;;;;;;10.96;63.12;98427.84;4917215;29;20031;-94
2024/01/18 06:51:52;;;;;;;12.05;5.88;;;;;;;10.94;63.48;98421.16;4931047;29;20035;-96
2024/01/18 06:54:21;;;;;;;9.25;5.75;;;;;;;11.03;63.08;98427.47;4914494;29;20023;-96
2024/01/18 06:56:47;;;;;;;8.68;4.90;;;;;;;11.16;62.97;98432.09;4917566;29;20027;-95
2024/01/18 06:59:36;;;;;;;8.55;3.83;;;;;;;11.10;62.66;98417.09;4918262;29;20561;-96
2024/01/18 07:04:53;;;;;;;12.15;6.97;;;;;;;11.40;62.25;98437.34;5165602;23;20059;-95
2024/01/18 07:21:47;;;;;;;8.70;4.45;;;;;;;11.60;61.62;98401.13;4951711;29;20129;-95
2024/01/18 07:24:15;;;;;;;15.05;6.70;;;;;;;11.72;61.20;98401.44;4914919;29;20038;-94
2024/01/18 07:26:41;;;;;;;13.73;9.48;;;;;;;11.80;61.37;98407.22;4912615;29;20045;-94
2024/01/18 07:29:09;;;;;;;8.80;6.40;;;;;;;11.81;61.41;98390.75;4914809;29;20114;-95
2024/01/18 07:31:35;;;;;;;9.13;6.28;;;;;;;11.89;60.70;98392.75;4914190;29;20027;-96
2024/01/18 07:34:03;;;;;;;7.22;4.20;;;;;;;11.91;60.64;98392.44;4916739;29;20031;-96
2024/01/18 07:36:32;;;;;;;6.30;4.38;;;;;;;11.89;60.20;98392.75;4922137;29;20035;-93
2024/01/18 07:39:03;;;;;;;7.43;4.53;;;;;;;12.08;60.16;98397.25;4917114;29;20031;-96
2024/01/18 07:41:34;;;;;;;11.40;6.50;;;;;;;12.11;59.72;98397.41;4926674;29;20038;-95
2024/01/18 07:44:16;;;;;;;8.27;5.47;;;;;;;12.20;60.00;98404.78;4944755;29;20027;-96
2024/01/18 07:46:50;;;;;;;7.60;4.32;;;;;;;12.09;59.79;98379.94;4933453;29;20096;-96
2024/01/18 07:49:42;;;;;;;11.60;6.13;;;;;;;12.32;59.54;98396.97;4896321;29;20044;-96
2024/01/18 07:52:09;;;;;;;7.93;5.30;;;;;;;12.33;59.02;98366.19;4899967;29;20069;-95
2024/01/18 07:54:35;;;;;;;7.45;5.47;;;;;;;12.44;58.23;98369.47;4882406;29;20565;-95
2024/01/18 07:57:01;;;;;;;11.60;7.43;;;;;;;12.46;58.50;98365.34;4882809;29;20051;-95
2024/01/18 07:59:39;;;;;;;10.73;6.38;;;;;;;12.64;58.38;98373.59;4884097;29;20040;-96
2024/01/18 08:02:10;;;;;;;11.68;6.60;;;;;;;12.62;58.83;98381.19;4916300;29;20107;-96
2024/01/18 08:04:38;;;;;;;12.75;6.85;;;;;;;12.61;58.55;98355.28;4880559;29;20035;-95
2024/01/18 08:07:04;;;;;;;11.95;6.85;;;;;;;12.74;58.67;98366.03;4903775;29;20103;-96
2024/01/18 08:09:31;;;;;;;12.10;6.25;;;;;;;12.81;58.67;98362.09;4896893;29;20031;-96
2024/01/18 08:11:57;;;;;;;12.88;5.93;;;;;;;12.81;58.21;98348.59;4877215;29;20062;-95
2024/01/18 08:14:23;;;;;;;8.57;4.70;;;;;;;12.83;57.95;98349.88;4875690;29;20071;-96
2024/01/18 08:16:51;;;;;;;6.70;4.35;;;;;;;12.98;57.23;98356.78;4874035;29;20099;-94
2024/01/18 08:19:24;;;;;;;12.23;5.00;;;;;;;13.12;56.80;98364.84;4875154;29;20414;-95
2024/01/18 08:22:05;;;;;;;12.35;4.93;;;;;;;13.18;56.50;98349.25;4879926;29;20466;-96
2024/01/18 08:24:34;;;;;;;7.82;6.05;;;;;;;13.29;56.46;98345.22;4891279;29;20136;-93
2024/01/18 08:27:13;;;;;;;11.05;7.20;;;;;;;13.48;56.42;98367.41;4873492;29;20032;-94
2024/01/18 08:30:11;;;;;;;;;;;;;;;;;;;;;
2024/01/18 08:44:29;;;;;;;9.27;4.38;;;;;;;13.87;54.48;98336.00;5924246;23;21428;-96
2024/01/18 09:00:31;;;;;;;;;;;;;;;14.10;53.47;98322.34;5728410;23;20146;-95
2024/01/18 09:03:00;;;;;;;6.70;3.42;;;;;;;14.03;53.14;98298.47;4952666;29;19918;-94
2024/01/18 09:05:44;;;;;;;8.63;6.00;;;;;;;14.07;53.25;98287.78;4936281;29;20027;-94
2024/01/18 09:15:19;;;;;;;6.07;4.28;;;;;;;14.48;52.53;98272.97;4859600;28;20096;-96
2024/01/18 09:18:00;;;;;;;;;;;;;;;;;;;;;
2024/01/18 09:20:37;;;;;;;;;;;;;;;14.74;51.48;98262.91;4948364;29;20118;-96
2024/01/18 09:24:21;;;;;;;10.30;6.38;;;;;;;14.62;52.13;98234.88;4961354;29;19914;-94
2024/01/18 09:26:26;;;;;;;23.85;16.42;;;;;;;14.82;51.64;98247.75;4931239;29;20050;-95
2024/01/18 09:28:52;;;;;;;5.72;3.80;;;;;;;14.83;51.80;98235.75;4965330;28;20047;-95
2024/01/18 09:31:25;;;;;;;6.88;3.50;;;;;;;14.83;51.78;98227.63;4935894;29;20038;-95
2024/01/18 09:39:39;;;;;;;;;;;;;;;;;;;;;
2024/01/18 09:42:22;;;;;;;7.22;4.38;;;;;;;14.95;50.83;98203.34;4961150;28;20038;-95
2024/01/18 09:45:27;;;;;;;4.10;3.05;;;;;;;14.94;50.94;98180.09;4922526;29;20417;-95
2024/01/18 09:48:10;;;;;;;10.40;4.45;;;;;;;15.13;50.59;98195.94;4922952;29;20027;-95
2024/01/18 09:50:49;;;;;;;8.63;3.83;;;;;;;15.15;50.74;98182.06;4937394;29;20058;-95
2024/01/18 09:53:14;;;;;;;7.13;5.90;;;;;;;15.14;50.24;98170.41;4941559;29;20027;-95
2024/01/18 09:55:40;;;;;;;9.15;6.10;;;;;;;15.30;50.46;98172.56;4930096;29;20070;-93
2024/01/18 10:00:52;;;;;;;7.18;5.10;;;;;;;15.42;50.43;98156.34;5047287;23;20068;-96
2024/01/18 10:03:42;;;;;;;12.68;6.60;;;;;;;15.46;50.87;98151.88;4935838;29;20041;-96
2024/01/18 10:06:24;;;;;;;11.80;7.93;;;;;;;15.68;50.18;98158.84;4887497;29;20132;-95
2024/01/18 10:08:50;;;;;;;;;;;;;;;15.77;51.07;98153.38;4942667;29;20040;-94
2024/01/18 10:11:22;;;;;;;6.53;3.55;;;;;;;15.67;51.09;98145.63;4930751;29;20372;-96
2024/01/18 10:13:52;;;;;;;6.88;4.97;;;;;;;15.72;51.24;98137.31;4913793;29;20031;-95
2024/01/18 10:16:32;;;;;;;16.08;9.07;;;;;;;15.88;51.24;98132.84;4914613;29;20103;-95
2024/01/18 10:19:18;;;;;;;26.85;16.15;;;;;;;15.86;51.56;98120.75;4913784;29;20043;-96
2024/01/18 10:21:50;;;;;;;19.38;7.95;;;;;;;15.96;51.84;98133.91;4916630;29;20032;-95
2024/01/18 10:24:17;;;;;;;12.80;6.30;;;;;;;15.92;51.79;98112.06;4917901;29;20031;-96
2024/01/18 10:26:45;;;;;;;12.57;7.68;;;;;;;15.93;51.56;98094.63;4916708;29;20031;-96
2024/01/18 10:29:23;;;;;;;16.73;10.30;;;;;;;15.94;51.39;98084.59;4917653;29;20028;-95
2024/01/18 10:39:41;;;;;;;66.03;29.88;;;;;;;16.09;50.03;98073.06;4943382;29;20052;-95
2024/01/18 10:42:18;;;;;;;19.80;11.43;;;;;;;16.21;49.88;98082.34;4898944;29;20035;-96
2024/01/18 10:48:31;;;;;;;;;;;;;;;;;;;;;
2024/01/18 12:09:29;;;;;;;5.40;2.67;;;;;;;17.33;44.38;97951.38;4955697;28;20009;-96
2024/01/18 12:11:58;;;;;;;9.63;5.50;;;;;;;17.28;44.63;97952.41;4910701;29;20058;-96
2024/01/18 12:14:24;;;;;;;30.08;12.73;;;;;;;17.28;44.34;97943.47;4927778;29;20083;-94
2024/01/18 12:16:49;;;;;;;24.00;9.30;;;;;;;17.33;44.80;97949.44;4911628;29;20095;-92
2024/01/18 12:19:40;;;;;;;17.75;6.25;;;;;;;17.37;44.27;97949.56;4914361;29;20027;-96
2024/01/18 12:22:33;;;;;;;10.45;4.43;;;;;;;17.43;44.21;97950.06;4901135;29;20040;-94
2024/01/18 12:24:58;;;;;;;9.32;3.95;;;;;;;17.40;44.19;97942.63;4941600;29;20023;-95
2024/01/18 12:27:53;;;;;;;17.73;3.35;;;;;;;17.45;44.26;97945.88;4916206;29;20031;-93
2024/01/18 12:30:19;;;;;;;9.05;3.05;;;;;;;17.38;44.68;97946.47;4903259;29;20112;-96
2024/01/18 12:32:51;;;;;;;18.08;2.90;;;;;;;17.33;44.55;97945.94;5121627;23;20060;-96
2024/01/18 12:46:01;;;;;;;9.30;2.67;;;;;;;17.40;45.02;97981.50;5983473;23;21631;-96
2024/01/18 13:00:34;;;;;;;5.07;2.30;;;;;;;16.59;45.73;97981.50;4970413;28;20034;-96
2024/01/18 13:03:18;;;;;;;16.48;4.38;;;;;;;16.48;45.89;98000.19;4929524;29;20027;-96
2024/01/18 13:05:44;;;;;;;8.85;3.65;;;;;;;16.39;46.35;98004.16;4917789;29;20030;-96
2024/01/18 13:08:13;;;;;;;5.53;3.60;;;;;;;16.19;46.40;97995.03;4931583;29;20027;-96
2024/01/18 13:10:54;;;;;;;;;;;;;;;;;;;;;
2024/01/18 13:13:41;;;;;;;5.40;3.13;;;;;;;16.04;46.79;97999.16;4939415;28;20062;-94
2024/01/18 13:16:14;;;;;;;7.80;4.10;;;;;;;15.85;47.35;97980.72;4917000;29;20067;-96
2024/01/18 13:20:03;;;;;;;;;;;;;;;;;;;;;
2024/01/18 13:22:48;;;;;;;8.75;3.60;;;;;;;15.79;47.17;97993.72;4979726;23;20060;-96
2024/01/18 13:30:53;;;;;;;9.77;2.95;;;;;;;15.60;47.50;97998.84;5979518;23;20022;-96
2024/01/18 13:33:29;;;;;;;9.52;3.20;;;;;;;15.72;47.58;98017.91;4913371;29;20051;-96
2024/01/18 13:47:22;;;;;;;7.53;3.00;;;;;;;15.04;49.29;97985.66;4930820;29;20067;-96
2024/01/18 13:50:02;;;;;;;5.35;3.13;;;;;;;15.15;49.26;97992.28;4894093;29;20139;-96
2024/01/18 13:52:29;;;;;;;6.47;2.60;;;;;;;15.27;49.22;97992.31;4949450;29;20120;-96
2024/01/18 13:54:56;;;;;;;5.82;2.65;;;;;;;15.21;49.29;97982.00;4928867;29;20044;-95
2024/01/18 13:57:28;;;;;;;6.85;3.50;;;;;;;15.24;48.98;97976.69;4911773;29;20032;-96
2024/01/18 13:59:57;;;;;;;;;;;;;;;15.30;49.38;98002.47;4933011;29;20032;-96
2024/01/18 14:02:45;;;;;;;6.97;3.28;;;;;;;15.10;49.66;97985.09;4919376;29;19954;-95
2024/01/18 14:06:05;;;;;;;7.05;3.70;;;;;;;15.02;50.21;97990.59;4921184;29;20055;-96
2024/01/18 14:23:28;;;;;;;7.40;3.88;;;;;;;14.90;51.83;98018.44;1424524;23;21230;-93
2024/01/18 14:25:54;;;;;;;9.27;2.50;;;;;;;14.75;52.36;98008.97;4892092;29;20041;-96
2024/01/18 14:28:20;;;;;;;7.78;2.63;;;;;;;14.75;51.95;98014.41;4878390;29;20025;-94
2024/01/18 14:30:49;;;;;;;8.30;3.40;;;;;;;14.77;52.10;98020.28;4877838;29;20016;-96
2024/01/18 14:33:14;;;;;;;6.25;3.47;;;;;;;14.88;52.12;98035.03;4876539;29;20439;-94
2024/01/18 14:35:40;;;;;;;6.55;2.85;;;;;;;14.80;52.33;98026.97;4875242;29;20008;-94
2024/01/18 14:38:07;;;;;;;5.40;3.40;;;;;;;14.73;52.38;98022.06;4876217;29;20040;-94
2024/01/18 14:40:35;;;;;;;7.68;4.45;;;;;;;14.78;52.30;98024.59;4889353;29;20060;-96
2024/01/18 14:43:04;;;;;;;10.93;4.70;;;;;;;14.82;52.39;98030.94;4878255;29;20029;-96
2024/01/18 14:45:30;;;;;;;10.57;4.22;;;;;;;14.90;52.58;98042.81;4876327;29;20455;-95
2024/01/18 14:56:12;;;;;;;9.05;5.15;;;;;;;14.73;52.86;98032.91;5122238;23;19922;-96
2024/01/18 15:18:50;;;;;;;14.15;6.90;;;;;;;14.32;54.62;97999.19;5174972;23;20043;-94
2024/01/18 15:21:16;;;;;;;14.27;9.25;;;;;;;14.28;54.75;97990.13;4915308;29;20122;-96
2024/01/18 15:23:41;;;;;;;26.65;9.07;;;;;;;14.22;55.25;97988.75;4916704;29;20078;-95
2024/01/18 15:41:44;;;;;;;4.28;3.35;;;;;;;14.13;54.68;97983.34;5454405;23;20090;-96
2024/01/18 15:44:30;;;;;;;7.28;4.05;;;;;;;14.04;54.88;97980.69;4923767;29;20059;-96
2024/01/18 15:47:07;;;;;;;6.57;3.70;;;;;;;14.10;54.41;97982.09;4973118;28;20023;-96
2024/01/18 15:49:40;;;;;;;7.18;3.58;;;;;;;14.04;54.49;97975.28;4960126;29;20090;-96
2024/01/18 15:52:06;;;;;;;8.70;3.40;;;;;;;14.08;54.54;97986.25;4955661;29;20181;-96
2024/01/18 15:54:32;;;;;;;7.63;3.38;;;;;;;14.00;54.65;97987.06;5045858;23;20031;-96
2024/01/18 15:56:58;;;;;;;6.97;4.35;;;;;;;14.03;54.48;98005.34;4897148;29;20063;-96
2024/01/18 15:59:25;;;;;;;11.38;6.43;;;;;;;14.10;54.39;98011.06;4897012;29;20028;-96
2024/01/18 16:01:52;;;;;;;7.22;4.05;;;;;;;14.17;54.59;98022.19;5241806;23;20052;-96
2024/01/18 16:04:18;;;;;;;5.38;4.03;;;;;;;14.18;54.63;98012.16;4929524;29;20036;-95
2024/01/18 16:06:44;;;;;;;11.07;4.78;;;;;;;14.13;54.65;98013.13;4910762;29;20024;-95
2024/01/18 16:09:11;;;;;;;8.10;3.67;;;;;;;14.00;54.72;97989.78;4910143;29;20035;-94
2024/01/18 16:11:37;;;;;;;7.75;3.65;;;;;;;14.06;54.51;98005.50;4911046;29;20087;-96
2024/01/18 16:14:04;;;;;;;8.30;3.50;;;;;;;14.17;54.80;98014.06;4911661;29;20028;-96